createdAt,value
2022-10-22T00:00:01.223Z,6.90
2022-10-22T00:02:27.939Z,8.23
2022-10-22T00:04:56.971Z,10.30
2022-10-22T00:07:23.763Z,6.90
2022-10-22T00:09:50.224Z,8.20
2022-10-22T00:12:17.198Z,6.50
2022-10-22T00:14:44.066Z,9.53
2022-10-22T00:17:11.745Z,10.63
2022-10-22T00:19:39.211Z,7.43
2022-10-22T00:22:06.540Z,6.82
2022-10-22T00:24:34.280Z,11.73
2022-10-22T00:27:00.924Z,7.00
2022-10-22T00:29:27.449Z,6.60
2022-10-22T00:34:25.591Z,8.88
2022-10-22T00:36:52.616Z,6.20
2022-10-22T00:39:21.021Z,6.47
2022-10-22T00:41:49.665Z,12.35
2022-10-22T00:44:53.299Z,8.40
2022-10-22T00:47:21.069Z,6.60
2022-10-22T00:49:48.107Z,6.47
2022-10-22T00:52:14.758Z,6.70
2022-10-22T00:54:42.413Z,7.88
2022-10-22T00:57:09.420Z,8.35
2022-10-22T00:59:37.675Z,6.80
2022-10-22T01:02:04.248Z,9.48
2022-10-22T01:04:30.695Z,7.17
2022-10-22T01:06:57.155Z,7.57
2022-10-22T01:09:29.629Z,6.20
2022-10-22T01:12:13.685Z,6.82
2022-10-22T01:15:00.577Z,6.53
2022-10-22T01:18:00.531Z,7.33
2022-10-22T01:20:38.978Z,6.90
2022-10-22T01:23:33.373Z,7.70
2022-10-22T01:26:38.402Z,7.50
2022-10-22T01:29:15.773Z,6.20
2022-10-22T01:31:47.929Z,7.33
2022-10-22T01:34:18.194Z,7.03
2022-10-22T01:36:46.870Z,7.05
2022-10-22T01:39:15.385Z,10.82
2022-10-22T01:41:45.437Z,9.75
2022-10-22T01:44:29.481Z,6.73
2022-10-22T01:47:18.341Z,9.52
2022-10-22T01:49:53.836Z,6.70
2022-10-22T01:52:51.734Z,6.90
2022-10-22T01:55:27.472Z,6.13
2022-10-22T01:58:30.443Z,6.27
2022-10-22T02:01:03.155Z,13.55
2022-10-22T02:03:38.121Z,7.70
2022-10-22T02:06:12.905Z,7.57
2022-10-22T02:08:39.621Z,10.65
2022-10-22T02:11:06.473Z,6.63
2022-10-22T02:13:58.511Z,5.68
2022-10-22T02:16:31.695Z,7.18
2022-10-22T02:19:02.538Z,7.05
2022-10-22T02:21:29.687Z,7.60
2022-10-22T02:23:56.455Z,6.53
2022-10-22T02:26:32.065Z,6.47
2022-10-22T02:29:06.739Z,10.23
2022-10-22T02:31:37.564Z,6.93
2022-10-22T02:34:10.196Z,7.00
2022-10-22T02:36:38.810Z,6.60
2022-10-22T02:39:07.992Z,6.95
2022-10-22T02:41:35.258Z,7.03
2022-10-22T02:44:03.023Z,6.93
2022-10-22T02:46:29.437Z,7.30
2022-10-22T02:48:55.860Z,7.40
2022-10-22T02:51:22.314Z,7.10
2022-10-22T02:53:48.751Z,9.07
2022-10-22T02:56:15.251Z,9.18
2022-10-22T02:58:41.800Z,7.22
2022-10-22T03:01:10.283Z,6.67
2022-10-22T03:03:38.909Z,5.57
2022-10-22T03:06:05.544Z,9.45
2022-10-22T03:08:32.173Z,7.13
2022-10-22T03:10:58.658Z,8.60
2022-10-22T03:13:25.173Z,7.50
2022-10-22T03:15:51.620Z,12.00
2022-10-22T03:18:18.257Z,6.30
2022-10-22T03:20:44.700Z,5.72
2022-10-22T03:23:14.874Z,5.93
2022-10-22T03:25:43.451Z,7.00
2022-10-22T03:28:13.259Z,6.05
2022-10-22T03:30:39.706Z,6.45
2022-10-22T03:33:06.136Z,7.35
2022-10-22T03:35:36.520Z,7.80
2022-10-22T03:38:02.973Z,7.37
2022-10-22T03:40:29.568Z,6.18
2022-10-22T03:42:56.078Z,7.38
2022-10-22T03:45:22.501Z,6.88
2022-10-22T03:47:48.923Z,6.53
2022-10-22T03:50:15.569Z,7.93
2022-10-22T03:52:41.975Z,10.43
2022-10-22T03:55:09.176Z,6.47
2022-10-22T03:57:35.941Z,12.77
2022-10-22T04:00:05.124Z,7.13
2022-10-22T04:02:31.547Z,7.10
2022-10-22T04:04:57.941Z,7.57
2022-10-22T04:07:24.379Z,9.30
2022-10-22T04:09:50.804Z,7.00
2022-10-22T04:12:17.979Z,9.30
2022-10-22T04:14:44.382Z,8.27
2022-10-22T04:17:10.908Z,8.85
2022-10-22T04:19:37.395Z,6.97
2022-10-22T04:22:04.147Z,9.40
2022-10-22T04:24:32.002Z,6.50
2022-10-22T04:26:58.750Z,10.33
2022-10-22T04:29:25.521Z,5.88
2022-10-22T04:31:52.412Z,11.10
2022-10-22T04:34:18.827Z,7.07
2022-10-22T04:36:45.287Z,9.98
2022-10-22T04:39:11.788Z,12.33
2022-10-22T04:41:39.343Z,8.85
2022-10-22T04:44:09.892Z,9.73
2022-10-22T04:46:39.987Z,6.72
2022-10-22T04:49:06.429Z,14.25
2022-10-22T04:51:33.203Z,8.17
2022-10-22T04:53:59.805Z,8.38
2022-10-22T04:56:29.492Z,11.00
2022-10-22T04:58:58.786Z,8.02
2022-10-22T05:01:27.999Z,7.43
2022-10-22T05:03:56.224Z,12.33
2022-10-22T05:06:24.215Z,11.27
2022-10-22T05:08:59.140Z,8.35
2022-10-22T05:11:31.528Z,9.43
2022-10-22T05:13:59.602Z,8.38
2022-10-22T05:16:26.554Z,8.37
2022-10-22T05:18:53.411Z,9.10
2022-10-22T05:21:21.472Z,7.38
2022-10-22T05:23:49.671Z,10.60
2022-10-22T05:26:19.482Z,7.97
2022-10-22T05:28:47.768Z,8.03
2022-10-22T05:31:20.474Z,10.30
2022-10-22T05:33:47.194Z,9.63
2022-10-22T05:36:19.456Z,13.18
2022-10-22T05:38:46.295Z,11.20
2022-10-22T05:41:21.526Z,8.30
2022-10-22T05:43:48.238Z,8.60
2022-10-22T05:46:21.969Z,9.52
2022-10-22T05:48:57.136Z,11.07
2022-10-22T05:51:24.492Z,7.00
2022-10-22T05:53:56.338Z,9.43
2022-10-22T05:56:23.328Z,7.63
2022-10-22T05:58:50.459Z,8.75
2022-10-22T06:01:20.252Z,10.35
2022-10-22T06:03:47.711Z,6.60
2022-10-22T06:06:21.554Z,9.40
2022-10-22T06:08:50.380Z,6.78
2022-10-22T06:11:18.731Z,11.02
2022-10-22T06:13:46.069Z,9.48
2022-10-22T06:16:13.379Z,7.37
2022-10-22T06:18:40.101Z,6.70
2022-10-22T06:21:12.341Z,9.95
2022-10-22T06:23:39.609Z,9.07
2022-10-22T06:26:07.121Z,9.35
2022-10-22T06:28:34.286Z,6.10
2022-10-22T06:31:01.774Z,9.40
2022-10-22T06:33:29.595Z,7.30
2022-10-22T06:35:56.105Z,7.63
2022-10-22T06:38:22.595Z,7.53
2022-10-22T06:40:49.084Z,9.73
2022-10-22T06:43:15.553Z,6.95
2022-10-22T06:45:42.015Z,11.25
2022-10-22T06:48:08.498Z,6.03
2022-10-22T06:50:35.317Z,6.47
2022-10-22T06:53:01.754Z,12.07
2022-10-22T06:55:28.549Z,7.53
2022-10-22T06:57:55.649Z,10.70
2022-10-22T07:00:22.455Z,9.93
2022-10-22T07:02:56.426Z,9.75
2022-10-22T07:05:25.578Z,5.27
2022-10-22T07:07:52.005Z,10.82
2022-10-22T07:10:18.604Z,8.68
2022-10-22T07:12:45.106Z,9.02
2022-10-22T07:15:11.780Z,8.25
2022-10-22T07:20:10.382Z,8.32
2022-10-22T07:22:36.884Z,5.78
2022-10-22T07:25:07.186Z,10.55
2022-10-22T07:27:33.957Z,8.40
2022-10-22T07:30:01.443Z,8.83
2022-10-22T07:32:28.220Z,4.93
2022-10-22T07:34:54.664Z,11.75
2022-10-22T07:37:22.096Z,9.52
2022-10-22T07:39:49.638Z,9.80
2022-10-22T07:42:16.337Z,7.77
2022-10-22T07:44:42.847Z,7.45
2022-10-22T07:47:09.286Z,7.00
2022-10-22T07:49:35.703Z,5.80
2022-10-22T07:52:02.117Z,6.88
2022-10-22T07:54:28.642Z,7.60
2022-10-22T07:56:55.073Z,6.85
2022-10-22T07:59:21.528Z,8.27
2022-10-22T08:01:47.982Z,6.32
2022-10-22T08:04:14.482Z,5.18
2022-10-22T08:06:44.515Z,9.30
2022-10-22T08:09:13.712Z,8.13
2022-10-22T08:11:40.187Z,7.63
2022-10-22T08:14:06.637Z,9.30
2022-10-22T08:16:33.095Z,4.95
2022-10-22T08:18:59.535Z,10.13
2022-10-22T08:21:26.755Z,10.13
2022-10-22T08:23:53.385Z,12.40
2022-10-22T08:26:20.037Z,14.30
2022-10-22T08:28:46.507Z,5.85
2022-10-22T08:31:13.625Z,5.57
2022-10-22T08:33:40.163Z,6.10
2022-10-22T08:36:07.722Z,6.53
2022-10-22T08:38:35.255Z,6.50
2022-10-22T08:41:19.841Z,8.57
2022-10-22T08:44:07.349Z,7.63
2022-10-22T08:46:47.368Z,7.63
2022-10-22T08:49:27.315Z,7.60
2022-10-22T08:51:55.827Z,13.13
2022-10-22T08:54:33.496Z,10.45
2022-10-22T08:57:09.057Z,9.10
2022-10-22T08:59:47.136Z,6.82
2022-10-22T09:02:42.709Z,7.30
2022-10-22T09:05:20.224Z,7.50
2022-10-22T09:07:50.184Z,7.60
2022-10-22T09:10:24.819Z,10.53
2022-10-22T09:12:51.452Z,6.20
2022-10-22T09:15:19.262Z,8.18
2022-10-22T09:17:52.383Z,8.48
2022-10-22T09:20:40.760Z,7.18
2022-10-22T09:23:31.636Z,7.37
2022-10-22T09:25:59.573Z,10.55
2022-10-22T09:28:26.069Z,6.82
2022-10-22T09:30:52.596Z,9.88
2022-10-22T09:33:27.601Z,6.47
2022-10-22T09:36:03.209Z,10.23
2022-10-22T09:38:38.998Z,6.43
2022-10-22T09:41:05.882Z,10.00
2022-10-22T09:43:33.548Z,10.02
2022-10-22T09:46:02.612Z,6.75
2022-10-22T09:48:34.480Z,7.93
2022-10-22T09:51:17.725Z,10.95
2022-10-22T09:53:47.092Z,9.23
2022-10-22T09:56:24.787Z,11.05
2022-10-22T09:58:51.901Z,6.32
2022-10-22T10:01:23.715Z,7.53
2022-10-22T10:03:50.345Z,11.05
2022-10-22T10:06:22.463Z,9.18
2022-10-22T10:08:49.777Z,12.88
2022-10-22T10:11:29.063Z,6.20
2022-10-22T10:14:14.337Z,6.27
2022-10-22T10:16:43.042Z,10.48
2022-10-22T10:19:24.676Z,4.65
2022-10-22T10:22:22.076Z,6.22
2022-10-22T10:25:13.036Z,9.65
2022-10-22T10:27:57.995Z,9.07
2022-10-22T10:30:24.893Z,9.93
2022-10-22T10:32:57.293Z,10.13
2022-10-22T10:35:30.051Z,7.07
2022-10-22T10:38:16.694Z,6.65
2022-10-22T10:40:54.415Z,6.93
2022-10-22T10:43:30.195Z,9.85
2022-10-22T10:46:25.719Z,7.78
2022-10-22T10:49:26.157Z,12.48
2022-10-22T10:51:55.516Z,9.77
2022-10-22T10:54:25.101Z,11.00
2022-10-22T10:57:03.106Z,6.63
2022-10-22T10:59:32.165Z,9.75
2022-10-22T11:02:36.043Z,6.28
2022-10-22T11:05:28.453Z,5.72
2022-10-22T11:08:20.395Z,6.20
2022-10-22T11:10:48.953Z,5.63
2022-10-22T11:13:18.747Z,7.57
2022-10-22T11:16:22.953Z,9.80
2022-10-22T11:19:22.962Z,12.27
2022-10-22T11:22:24.547Z,9.10
2022-10-22T11:24:59.104Z,7.38
2022-10-22T11:27:33.423Z,6.38
2022-10-22T11:30:11.794Z,9.40
2022-10-22T11:32:41.576Z,8.68
2022-10-22T11:35:25.893Z,10.13
2022-10-22T11:37:55.541Z,8.32
2022-10-22T11:40:34.274Z,7.20
2022-10-22T11:43:25.435Z,9.35
2022-10-22T11:46:00.780Z,10.93
2022-10-22T11:48:28.766Z,7.13
2022-10-22T11:51:00.978Z,6.97
2022-10-22T11:53:38.898Z,12.15
2022-10-22T11:56:10.217Z,11.95
2022-10-22T11:58:44.809Z,10.00
2022-10-22T12:01:11.260Z,11.17
2022-10-22T12:03:51.375Z,6.32
2022-10-22T12:06:21.439Z,11.80
2022-10-22T12:08:54.425Z,10.25
2022-10-22T12:11:40.246Z,9.93
2022-10-22T12:14:22.898Z,10.30
2022-10-22T12:16:57.857Z,8.73
2022-10-22T12:19:39.360Z,12.35
2022-10-22T12:22:19.510Z,8.98
2022-10-22T12:24:49.479Z,10.55
2022-10-22T12:27:22.846Z,13.63
2022-10-22T12:29:57.597Z,10.73
2022-10-22T12:32:32.654Z,9.57
2022-10-22T12:35:07.924Z,10.85
2022-10-22T12:37:38.437Z,9.50
2022-10-22T12:40:18.283Z,10.33
2022-10-22T12:42:55.022Z,14.68
2022-10-22T12:45:23.195Z,10.63
2022-10-22T12:48:21.797Z,12.77
2022-10-22T12:50:54.369Z,8.68
2022-10-22T12:53:37.849Z,11.47
2022-10-22T12:56:07.742Z,8.18
2022-10-22T12:58:39.523Z,11.10
2022-10-22T13:01:06.592Z,13.82
2022-10-22T13:03:41.630Z,9.85
2022-10-22T13:06:20.531Z,10.37
2022-10-22T13:09:06.202Z,15.02
2022-10-22T13:12:04.738Z,5.05
2022-10-22T13:14:38.056Z,13.32
2022-10-22T13:17:17.817Z,10.77
2022-10-22T13:19:53.305Z,7.77
2022-10-22T13:22:40.723Z,14.75
2022-10-22T13:25:17.141Z,5.53
2022-10-22T13:27:45.067Z,11.27
2022-10-22T13:30:19.831Z,12.90
2022-10-22T13:32:51.887Z,9.30
2022-10-22T13:35:24.165Z,12.15
2022-10-22T13:37:50.721Z,10.38
2022-10-22T13:40:17.807Z,12.57
2022-10-22T13:42:44.386Z,10.50
2022-10-22T13:45:12.421Z,12.03
2022-10-22T13:47:39.623Z,11.20
2022-10-22T13:50:15.820Z,12.73
2022-10-22T13:52:45.972Z,9.27
2022-10-22T13:55:33.695Z,12.32
2022-10-22T13:58:14.017Z,13.00
2022-10-22T14:00:43.966Z,14.70
2022-10-22T14:03:13.336Z,18.67
2022-10-22T14:05:39.765Z,11.82
2022-10-22T14:08:12.878Z,17.05
2022-10-22T14:10:39.443Z,7.80
2022-10-22T14:13:17.023Z,10.05
2022-10-22T14:15:46.546Z,8.68
2022-10-22T14:18:16.967Z,9.75
2022-10-22T14:20:43.606Z,9.85
2022-10-22T14:23:20.419Z,8.23
2022-10-22T14:25:47.555Z,8.77
2022-10-22T14:28:14.573Z,11.43
2022-10-22T14:30:41.157Z,11.27
2022-10-22T14:33:34.172Z,6.40
2022-10-22T14:36:01.369Z,10.40
2022-10-22T14:38:28.683Z,13.82
2022-10-22T14:40:55.211Z,9.80
2022-10-22T14:43:25.156Z,10.02
2022-10-22T14:45:51.799Z,13.13
2022-10-22T14:50:47.593Z,12.02
2022-10-22T14:53:14.882Z,10.57
2022-10-22T14:55:42.915Z,9.30
2022-10-22T14:58:10.056Z,9.15
2022-10-22T15:00:36.904Z,11.00
2022-10-22T15:03:04.437Z,7.55
2022-10-22T15:05:31.255Z,7.72
2022-10-22T15:07:59.205Z,9.27
2022-10-22T15:10:26.738Z,8.10
2022-10-22T15:12:53.424Z,11.07
2022-10-22T15:15:22.633Z,8.82
2022-10-22T15:17:49.744Z,7.85
2022-10-22T15:20:16.294Z,9.35
2022-10-22T15:22:43.173Z,8.38
2022-10-22T15:25:10.225Z,11.93
2022-10-22T15:27:36.718Z,13.25
2022-10-22T15:30:03.909Z,13.25
2022-10-22T15:32:32.264Z,5.38
2022-10-22T15:34:58.788Z,11.18
2022-10-22T15:37:25.256Z,13.00
2022-10-22T15:39:51.706Z,10.15
2022-10-22T15:42:21.001Z,4.65
2022-10-22T15:44:47.426Z,7.90
2022-10-22T15:47:14.017Z,3.72
2022-10-22T15:49:41.842Z,10.30
2022-10-22T15:52:09.102Z,10.75
2022-10-22T15:54:35.781Z,12.85
2022-10-22T15:57:03.898Z,10.35
2022-10-22T15:59:30.661Z,12.60
2022-10-22T16:01:57.084Z,8.80
2022-10-22T16:04:23.497Z,14.93
2022-10-22T16:06:54.934Z,12.45
2022-10-22T16:09:24.314Z,11.35
2022-10-22T16:14:24.060Z,10.60
2022-10-22T16:16:52.792Z,9.45
2022-10-22T16:19:21.189Z,9.00
2022-10-22T16:21:50.759Z,6.95
2022-10-22T16:24:17.786Z,4.32
2022-10-22T16:26:44.367Z,8.03
2022-10-22T16:29:12.527Z,12.25
2022-10-22T16:31:40.642Z,14.60
2022-10-22T16:34:07.637Z,9.52
2022-10-22T16:36:36.149Z,9.95
2022-10-22T16:39:03.719Z,11.97
2022-10-22T16:41:35.115Z,9.57
2022-10-22T16:44:05.293Z,10.15
2022-10-22T16:46:33.317Z,10.73
2022-10-22T16:48:59.887Z,15.35
2022-10-22T16:51:27.876Z,12.30
2022-10-22T16:53:56.137Z,20.08
2022-10-22T16:56:23.574Z,16.50
2022-10-22T16:58:52.516Z,17.50
2022-10-22T17:01:21.039Z,12.43
2022-10-22T17:03:47.673Z,13.43
2022-10-22T17:06:14.795Z,17.70
2022-10-22T17:08:42.134Z,25.15
2022-10-22T17:11:17.185Z,28.08
2022-10-22T17:13:45.767Z,40.97
2022-10-22T17:16:15.505Z,25.20
2022-10-22T17:18:43.242Z,29.88
2022-10-22T17:21:11.500Z,26.55
2022-10-22T17:23:38.433Z,20.33
2022-10-22T17:26:07.182Z,17.23
2022-10-22T17:28:36.226Z,24.87
2022-10-22T17:31:08.908Z,18.40
2022-10-22T17:33:36.414Z,21.67
2022-10-22T17:36:08.946Z,22.60
2022-10-22T17:38:35.593Z,17.38
2022-10-22T17:41:04.387Z,20.37
2022-10-22T17:43:35.611Z,15.38
2022-10-22T17:46:14.865Z,19.55
2022-10-22T17:48:41.464Z,22.60
2022-10-22T17:51:09.486Z,20.83
2022-10-22T17:53:36.111Z,13.27
2022-10-22T17:56:06.952Z,14.50
2022-10-22T17:58:33.419Z,22.80
2022-10-22T18:00:59.909Z,18.25
2022-10-22T18:03:27.869Z,22.15
2022-10-22T18:05:55.242Z,20.10
2022-10-22T18:08:24.057Z,21.85
2022-10-22T18:10:50.557Z,22.90
2022-10-22T18:13:17.031Z,27.42
2022-10-22T18:15:43.463Z,25.42
2022-10-22T18:18:10.031Z,24.13
2022-10-22T18:20:36.494Z,21.83
2022-10-22T18:23:03.619Z,26.13
2022-10-22T18:25:31.772Z,27.65
2022-10-22T18:27:58.338Z,23.50
2022-10-22T18:30:24.808Z,27.43
2022-10-22T18:32:51.780Z,25.48
2022-10-22T18:35:18.298Z,26.63
2022-10-22T18:37:44.926Z,26.05
2022-10-22T18:40:14.652Z,22.92
2022-10-22T18:42:41.845Z,23.70
2022-10-22T18:45:08.974Z,23.20
2022-10-22T18:47:39.833Z,34.33
2022-10-22T18:50:06.713Z,29.77
2022-10-22T18:52:33.733Z,31.83
2022-10-22T18:55:00.154Z,29.77
2022-10-22T18:57:26.609Z,27.90
2022-10-22T18:59:54.699Z,26.95
2022-10-22T19:02:23.680Z,28.17
2022-10-22T19:04:50.117Z,28.08
2022-10-22T19:07:16.597Z,29.60
2022-10-22T19:09:43.079Z,31.42
2022-10-22T19:12:09.631Z,35.95
2022-10-22T19:14:36.371Z,26.10
2022-10-22T19:17:02.940Z,28.10
2022-10-22T19:19:29.375Z,23.83
2022-10-22T19:21:56.610Z,25.30
2022-10-22T19:24:23.066Z,35.03
2022-10-22T19:26:49.930Z,27.88
2022-10-22T19:29:18.804Z,22.80
2022-10-22T19:31:45.859Z,25.37
2022-10-22T19:34:12.453Z,25.90
2022-10-22T19:36:38.944Z,34.60
2022-10-22T19:39:06.125Z,34.95
2022-10-22T19:41:33.241Z,30.77
2022-10-22T19:44:00.822Z,36.80
2022-10-22T19:46:29.217Z,30.70
2022-10-22T19:48:57.300Z,31.20
2022-10-22T19:51:29.833Z,33.13
2022-10-22T19:54:04.642Z,26.05
2022-10-22T19:56:32.031Z,28.97
2022-10-22T19:58:58.815Z,36.70
2022-10-22T20:01:25.824Z,29.73
2022-10-22T20:03:52.699Z,28.23
2022-10-22T20:06:20.006Z,30.45
2022-10-22T20:08:46.778Z,24.23
2022-10-22T20:11:28.397Z,27.55
2022-10-22T20:13:55.252Z,29.27
2022-10-22T20:16:24.293Z,38.70
2022-10-22T20:18:52.514Z,43.05
2022-10-22T20:21:19.799Z,45.70
2022-10-22T20:23:47.387Z,50.03
2022-10-22T20:26:14.032Z,45.30
2022-10-22T20:28:40.492Z,46.13
2022-10-22T20:31:11.903Z,82.70
2022-10-22T20:33:38.358Z,94.20
2022-10-22T20:36:12.821Z,51.08
2022-10-22T20:38:39.370Z,47.35
2022-10-22T20:41:09.929Z,49.38
2022-10-22T20:43:36.379Z,30.92
2022-10-22T20:46:03.478Z,27.00
2022-10-22T20:48:31.343Z,25.48
2022-10-22T20:50:59.545Z,31.35
2022-10-22T20:53:27.381Z,35.90
2022-10-22T20:55:58.947Z,34.55
2022-10-22T20:58:27.064Z,30.43
2022-10-22T21:00:55.137Z,29.02
2022-10-22T21:03:21.755Z,21.67
2022-10-22T21:05:48.497Z,33.72
2022-10-22T21:08:17.916Z,66.82
2022-10-22T21:10:49.159Z,62.27
2022-10-22T21:13:16.638Z,34.22
2022-10-22T21:15:43.227Z,24.45
2022-10-22T21:18:09.693Z,23.98
2022-10-22T21:20:36.269Z,21.80
2022-10-22T21:23:02.736Z,17.17
2022-10-22T21:25:29.187Z,18.13
2022-10-22T21:27:55.710Z,20.42
2022-10-22T21:30:22.173Z,23.15
2022-10-22T21:32:48.777Z,26.30
2022-10-22T21:35:15.261Z,19.03
2022-10-22T21:37:41.895Z,23.27
2022-10-22T21:40:09.049Z,16.15
2022-10-22T21:42:35.494Z,17.75
2022-10-22T21:45:02.052Z,15.75
2022-10-22T21:47:28.555Z,21.20
2022-10-22T21:49:57.111Z,16.05
2022-10-22T21:52:23.838Z,17.98
2022-10-22T21:54:50.273Z,19.08
2022-10-22T21:57:16.711Z,16.02
2022-10-22T21:59:43.114Z,15.87
2022-10-22T22:02:09.600Z,20.13
2022-10-22T22:04:36.085Z,17.50
2022-10-22T22:07:02.526Z,16.38
2022-10-22T22:09:28.958Z,15.20
2022-10-22T22:11:56.158Z,19.23
2022-10-22T22:14:22.635Z,16.98
2022-10-22T22:16:49.140Z,18.92
2022-10-22T22:19:15.582Z,14.57
2022-10-22T22:21:42.230Z,15.02
2022-10-22T22:24:11.253Z,19.63
2022-10-22T22:26:37.775Z,17.20
2022-10-22T22:29:04.226Z,13.85
2022-10-22T22:31:33.650Z,14.27
2022-10-22T22:34:08.540Z,20.13
2022-10-22T22:36:40.822Z,14.07
2022-10-22T22:39:13.378Z,13.13
2022-10-22T22:41:40.947Z,12.52
2022-10-22T22:44:07.428Z,11.57
2022-10-22T22:46:34.160Z,12.30
2022-10-22T22:49:00.710Z,14.40
2022-10-22T22:51:27.325Z,15.88
2022-10-22T22:53:53.980Z,11.73
2022-10-22T22:56:23.600Z,14.60
2022-10-22T22:58:50.418Z,11.35
2022-10-22T23:01:19.488Z,12.40
2022-10-22T23:03:49.318Z,11.82
2022-10-22T23:06:16.183Z,11.88
2022-10-22T23:08:43.271Z,10.05
2022-10-22T23:11:13.831Z,15.25
2022-10-22T23:13:42.083Z,13.77
2022-10-22T23:16:18.788Z,11.50
2022-10-22T23:18:46.769Z,11.30
2022-10-22T23:21:18.772Z,13.13
2022-10-22T23:23:50.614Z,11.20
2022-10-22T23:26:22.942Z,11.37
2022-10-22T23:28:49.577Z,15.25
2022-10-22T23:31:19.194Z,15.82
2022-10-22T23:33:46.091Z,16.75
2022-10-22T23:36:13.138Z,16.60
2022-10-22T23:38:40.740Z,14.13
2022-10-22T23:41:07.743Z,13.43
2022-10-22T23:43:36.135Z,12.27
2022-10-22T23:46:04.750Z,17.55
2022-10-22T23:48:31.531Z,13.38
2022-10-22T23:50:58.094Z,13.27
2022-10-22T23:53:24.564Z,14.70
2022-10-22T23:55:51.008Z,12.90
2022-10-22T23:58:17.458Z,18.17
